Time;durP1;ratioP1;P1;durP2;ratioP2;P2;SDS_P1;SDS_P2;PMS_P1;PMS_P2;Temp;Humidity;BMP_temperature;BMP_pressure;BME280_temperature;BME280_humidity;BME280_pressure;Samples;Min_cycle;Max_cycle;Signal;HPM_P1;HPM_P2
2022/05/13 00:01:05;;;;;;;5.30;2.80;;;12.90;97.30;;;;;;5008980;28;20224;-74
2022/05/13 00:03:31;;;;;;;6.53;2.70;;;12.90;97.30;;;;;;5008926;28;20192;-74
2022/05/13 00:05:57;;;;;;;2.70;2.50;;;12.90;97.30;;;;;;5009935;28;20858;-74
2022/05/13 00:08:22;;;;;;;4.00;3.10;;;12.90;97.30;;;;;;5008772;28;20416;-74
2022/05/13 00:10:48;;;;;;;3.33;2.83;;;12.80;97.30;;;;;;5008633;28;20183;-75
2022/05/13 00:13:14;;;;;;;7.33;2.77;;;12.70;97.30;;;;;;5010198;28;20323;-74
2022/05/13 00:15:42;;;;;;;5.40;3.13;;;12.70;97.30;;;;;;5008563;28;20197;-74
2022/05/13 00:18:08;;;;;;;3.40;2.97;;;12.70;97.30;;;;;;5010141;28;20690;-74
2022/05/13 00:20:34;;;;;;;5.50;3.10;;;12.60;97.30;;;;;;5008336;28;20425;-74
2022/05/13 00:23:00;;;;;;;3.43;2.67;;;12.50;97.30;;;;;;5010123;28;20469;-74
2022/05/13 00:25:28;;;;;;;5.30;2.80;;;12.50;97.30;;;;;;5010103;28;20582;-74
2022/05/13 00:27:55;;;;;;;5.93;3.20;;;12.50;97.30;;;;;;5008730;28;20440;-74
2022/05/13 00:30:21;;;;;;;6.80;2.93;;;12.40;97.30;;;;;;5013847;28;20428;-74
2022/05/13 00:32:49;;;;;;;7.50;3.20;;;12.40;97.30;;;;;;5014953;28;20416;-74
2022/05/13 00:35:15;;;;;;;3.73;2.93;;;12.40;97.30;;;;;;5014915;28;20522;-74
2022/05/13 00:37:40;;;;;;;3.40;2.40;;;12.50;97.30;;;;;;5016376;28;20470;-74
2022/05/13 00:40:08;;;;;;;3.20;2.33;;;12.50;97.30;;;;;;5014173;28;20489;-74
2022/05/13 00:42:33;;;;;;;5.50;2.50;;;12.50;97.30;;;;;;5016475;28;20238;-74
2022/05/13 00:44:59;;;;;;;3.17;2.90;;;12.50;97.30;;;;;;5015720;28;20471;-75
2022/05/13 00:47:25;;;;;;;6.23;3.00;;;12.50;97.30;;;;;;5016108;28;20176;-74
2022/05/13 00:49:53;;;;;;;3.60;2.67;;;12.40;97.30;;;;;;5014736;28;20642;-74
2022/05/13 00:52:19;;;;;;;3.27;2.57;;;12.30;97.30;;;;;;5016010;28;20430;-74
2022/05/13 00:54:44;;;;;;;5.53;3.20;;;12.30;97.30;;;;;;5014596;28;20475;-74
2022/05/13 00:57:13;;;;;;;6.20;3.23;;;12.20;97.30;;;;;;5014958;28;20173;-74
2022/05/13 00:59:42;;;;;;;5.47;3.57;;;12.20;97.30;;;;;;5014764;28;20188;-74
2022/05/13 01:02:09;;;;;;;3.37;2.83;;;12.10;97.30;;;;;;5015975;28;20412;-74
2022/05/13 01:04:37;;;;;;;5.63;3.20;;;12.00;97.30;;;;;;5014688;28;20420;-74
2022/05/13 01:07:08;;;;;;;5.30;3.00;;;12.00;97.30;;;;;;5014869;28;20424;-75
2022/05/13 01:09:38;;;;;;;3.60;2.50;;;12.00;97.30;;;;;;5014884;28;20427;-75
2022/05/13 01:12:10;;;;;;;4.07;2.80;;;12.00;97.30;;;;;;5015607;28;20412;-75
2022/05/13 01:14:41;;;;;;;6.10;4.10;;;12.10;97.30;;;;;;5014853;28;20448;-74
2022/05/13 01:20:12;;;;;;;4.83;3.43;;;12.00;97.30;;;;;;5015661;28;20502;-74
2022/05/13 01:22:44;;;;;;;6.93;2.80;;;11.90;97.30;;;;;;5015885;28;20412;-74
2022/05/13 01:25:12;;;;;;;7.80;3.80;;;11.90;97.30;;;;;;5014283;28;20529;-74
2022/05/13 01:27:41;;;;;;;6.83;3.50;;;11.80;97.30;;;;;;5014734;28;20450;-74
2022/05/13 01:30:07;;;;;;;4.90;3.20;;;11.70;97.30;;;;;;5015802;28;20904;-74
2022/05/13 01:32:33;;;;;;;4.20;3.40;;;11.60;97.30;;;;;;5014293;28;20892;-74
2022/05/13 01:34:58;;;;;;;5.40;3.40;;;11.60;97.30;;;;;;5014305;28;20475;-76
2022/05/13 01:37:24;;;;;;;5.73;3.60;;;11.60;97.30;;;;;;5015252;28;20204;-73
2022/05/13 01:39:49;;;;;;;6.50;3.70;;;11.50;97.30;;;;;;5014531;28;20188;-73
2022/05/13 01:42:15;;;;;;;7.27;3.23;;;11.50;97.30;;;;;;5012008;28;20185;-74
2022/05/13 01:44:40;;;;;;;9.80;4.33;;;11.50;97.30;;;;;;5011253;28;20181;-73
2022/05/13 01:47:06;;;;;;;4.43;3.10;;;11.50;97.30;;;;;;5011459;28;20234;-74
2022/05/13 01:49:32;;;;;;;4.13;3.33;;;11.40;97.30;;;;;;5011002;28;20181;-73
2022/05/13 01:51:57;;;;;;;4.10;3.53;;;11.40;97.30;;;;;;5011248;28;20415;-73
2022/05/13 01:54:23;;;;;;;3.80;3.60;;;11.40;97.30;;;;;;5012857;28;20221;-73
2022/05/13 01:56:48;;;;;;;4.07;3.10;;;11.40;97.30;;;;;;5012825;28;20197;-73
2022/05/13 01:59:14;;;;;;;5.40;3.17;;;11.40;97.30;;;;;;5013022;28;20178;-74
2022/05/13 02:01:40;;;;;;;4.40;3.70;;;11.30;97.30;;;;;;5011687;28;20184;-73
2022/05/13 02:04:05;;;;;;;3.77;3.17;;;11.30;97.30;;;;;;5011990;28;20212;-73
2022/05/13 02:06:31;;;;;;;4.20;3.40;;;11.40;97.30;;;;;;5012593;28;20205;-73
2022/05/13 02:08:58;;;;;;;4.17;3.23;;;11.40;97.30;;;;;;5012456;28;20170;-73
2022/05/13 02:11:26;;;;;;;3.33;3.23;;;11.40;97.30;;;;;;5010882;28;20635;-73
2022/05/13 02:13:52;;;;;;;4.33;2.80;;;11.30;97.30;;;;;;5012203;28;20440;-73
2022/05/13 02:16:19;;;;;;;7.40;3.80;;;11.30;97.30;;;;;;5012633;28;20941;-73
2022/05/13 02:18:45;;;;;;;4.33;3.30;;;11.20;97.30;;;;;;5012392;28;20426;-74
2022/05/13 02:21:11;;;;;;;4.97;3.70;;;11.20;97.30;;;;;;5012222;28;20511;-74
2022/05/13 02:23:37;;;;;;;7.33;3.43;;;11.10;97.30;;;;;;5010602;28;20489;-74
2022/05/13 02:26:08;;;;;;;4.80;3.63;;;11.10;97.30;;;;;;5011829;28;20479;-74
2022/05/13 02:28:35;;;;;;;7.47;4.37;;;11.00;97.30;;;;;;5011930;28;20407;-74
2022/05/13 02:31:01;;;;;;;5.10;4.13;;;11.00;97.30;;;;;;5010717;28;20791;-74
2022/05/13 02:33:30;;;;;;;5.87;4.17;;;11.00;97.30;;;;;;5010456;28;20424;-74
2022/05/13 02:35:57;;;;;;;5.50;3.80;;;10.90;97.30;;;;;;5011540;28;20295;-74
2022/05/13 02:38:22;;;;;;;4.73;4.00;;;10.90;97.30;;;;;;5011867;28;20419;-74
2022/05/13 02:43:34;;;;;;;4.87;3.30;;;10.80;97.30;;;;;;5012196;28;20411;-75
2022/05/13 02:45:59;;;;;;;5.10;3.40;;;10.80;97.30;;;;;;5011527;28;20476;-73
2022/05/13 02:48:26;;;;;;;4.03;3.63;;;10.80;97.30;;;;;;5010579;28;20929;-74
2022/05/13 02:50:51;;;;;;;6.03;3.70;;;10.80;97.30;;;;;;5010388;28;20320;-74
2022/05/13 02:53:17;;;;;;;5.50;4.03;;;10.80;97.30;;;;;;5011534;28;21010;-74
2022/05/13 02:55:42;;;;;;;5.23;4.03;;;10.80;97.30;;;;;;5010605;28;20275;-74
2022/05/13 02:58:08;;;;;;;4.73;3.50;;;10.80;97.30;;;;;;5010247;28;20563;-73
2022/05/13 03:00:35;;;;;;;9.03;3.97;;;10.80;97.30;;;;;;5011424;28;20188;-74
2022/05/13 03:03:01;;;;;;;6.70;4.00;;;10.80;97.30;;;;;;5010352;28;20817;-73
2022/05/13 03:05:28;;;;;;;6.13;3.77;;;10.80;97.30;;;;;;5011053;28;20459;-73
2022/05/13 03:07:53;;;;;;;6.60;3.90;;;10.80;97.30;;;;;;5009855;28;20178;-74
2022/05/13 03:10:19;;;;;;;7.30;3.57;;;10.80;97.30;;;;;;5011158;28;20420;-73
2022/05/13 03:12:45;;;;;;;7.50;3.90;;;10.80;97.30;;;;;;5011036;28;20177;-74
2022/05/13 03:15:12;;;;;;;4.50;3.90;;;10.80;97.30;;;;;;5010511;28;20205;-73
2022/05/13 03:17:39;;;;;;;4.40;3.37;;;10.80;97.30;;;;;;5009390;28;20429;-73
2022/05/13 03:20:07;;;;;;;6.70;3.83;;;10.80;97.30;;;;;;5010598;28;20500;-73
2022/05/13 03:22:32;;;;;;;6.27;4.10;;;10.80;97.30;;;;;;5011002;28;20424;-73
2022/05/13 03:24:59;;;;;;;8.40;4.50;;;10.80;97.30;;;;;;5009332;28;20456;-74
2022/05/13 03:27:26;;;;;;;6.73;3.70;;;10.80;97.30;;;;;;5011179;28;20174;-74
2022/05/13 03:29:52;;;;;;;6.60;4.30;;;10.80;97.30;;;;;;5010717;28;20408;-74
2022/05/13 03:32:17;;;;;;;6.07;3.43;;;10.80;97.30;;;;;;5009353;28;20800;-74
2022/05/13 03:34:43;;;;;;;7.40;4.17;;;10.80;97.30;;;;;;5009387;28;20512;-74
2022/05/13 03:37:08;;;;;;;5.70;3.60;;;10.80;97.30;;;;;;5011176;28;20197;-77
2022/05/13 03:39:34;;;;;;;4.60;3.10;;;10.80;97.30;;;;;;5008579;28;20184;-77
2022/05/13 03:41:59;;;;;;;4.93;3.20;;;10.70;97.30;;;;;;5010682;28;20177;-77
2022/05/13 03:44:25;;;;;;;6.93;4.00;;;10.70;97.30;;;;;;5010571;28;20181;-77
2022/05/13 03:46:51;;;;;;;4.97;3.70;;;10.70;97.30;;;;;;5010258;28;20254;-77
2022/05/13 03:49:16;;;;;;;5.90;3.63;;;10.80;97.30;;;;;;5009259;28;20169;-77
2022/05/13 03:51:42;;;;;;;4.33;3.63;;;10.80;97.30;;;;;;4996592;28;20215;-78
2022/05/13 03:54:08;;;;;;;5.03;4.03;;;10.70;97.30;;;;;;4999298;28;20222;-77
2022/05/13 03:56:34;;;;;;;6.40;3.70;;;10.70;97.30;;;;;;5016899;28;20567;-76
2022/05/13 03:58:59;;;;;;;17.03;3.87;;;10.70;97.30;;;;;;5008377;28;20415;-77
2022/05/13 04:01:25;;;;;;;7.23;4.23;;;10.70;97.30;;;;;;5009891;28;20174;-78
2022/05/13 04:03:51;;;;;;;11.00;3.87;;;10.70;97.30;;;;;;5008254;28;20429;-77
2022/05/13 04:09:03;;;;;;;5.50;3.80;;;10.70;97.30;;;;;;5001285;28;20340;-78
2022/05/13 04:11:37;;;;;;;7.47;4.30;;;10.70;97.30;;;;;;4999710;28;20420;-77
2022/05/13 04:16:50;;;;;;;9.60;3.97;;;10.80;97.30;;;;;;5009117;28;20435;-77
2022/05/13 04:19:17;;;;;;;7.67;4.10;;;10.80;97.30;;;;;;5012432;28;20795;-77
2022/05/13 04:21:44;;;;;;;8.20;4.40;;;10.90;97.30;;;;;;5009397;28;20189;-77
2022/05/13 04:24:12;;;;;;;11.33;4.07;;;10.90;97.30;;;;;;5008318;28;20914;-77
2022/05/13 04:26:38;;;;;;;5.33;3.43;;;10.90;97.30;;;;;;5008630;28;20497;-77
2022/05/13 04:29:05;;;;;;;7.67;5.03;;;11.00;97.30;;;;;;5008201;28;20420;-77
2022/05/13 04:31:39;;;;;;;6.23;4.23;;;11.00;97.30;;;;;;5007481;28;20420;-77
2022/05/13 04:34:06;;;;;;;9.63;4.50;;;11.10;97.30;;;;;;5008481;28;20420;-78
2022/05/13 04:36:32;;;;;;;8.13;3.80;;;11.10;97.30;;;;;;5009127;28;20501;-76
2022/05/13 04:38:58;;;;;;;8.50;4.73;;;11.10;97.30;;;;;;5008882;28;20420;-76
2022/05/13 04:44:10;;;;;;;10.20;4.80;;;11.20;97.30;;;;;;5009874;28;20581;-76
2022/05/13 04:46:36;;;;;;;8.10;5.10;;;11.20;97.30;;;;;;5008466;28;20561;-76
2022/05/13 04:49:03;;;;;;;10.23;5.03;;;11.20;97.30;;;;;;5009583;28;20405;-76
2022/05/13 04:51:29;;;;;;;6.73;4.90;;;11.30;97.30;;;;;;5009811;28;20412;-76
2022/05/13 04:53:56;;;;;;;6.20;4.90;;;11.30;97.30;;;;;;5008337;28;20456;-76
2022/05/13 04:56:23;;;;;;;6.83;4.57;;;11.40;97.30;;;;;;5008294;28;20435;-76
2022/05/13 04:58:49;;;;;;;5.80;5.00;;;11.40;97.30;;;;;;5008477;28;20412;-76
2022/05/13 05:01:17;;;;;;;12.43;5.53;;;11.40;97.30;;;;;;5008086;28;20943;-76
2022/05/13 05:03:44;;;;;;;10.70;5.40;;;11.50;97.30;;;;;;5008431;28;20475;-76
2022/05/13 05:06:11;;;;;;;9.20;5.60;;;11.50;97.30;;;;;;5008046;28;20902;-77
2022/05/13 05:08:38;;;;;;;9.00;5.87;;;11.50;97.30;;;;;;5009687;28;20458;-76
2022/05/13 05:11:05;;;;;;;7.37;5.67;;;11.60;97.30;;;;;;5009386;28;20415;-76
2022/05/13 05:13:34;;;;;;;15.63;7.70;;;11.70;97.30;;;;;;5008086;28;20420;-76
2022/05/13 05:15:59;;;;;;;12.83;6.97;;;11.80;97.30;;;;;;5008466;28;21023;-78
2022/05/13 05:18:26;;;;;;;11.73;7.30;;;11.90;97.30;;;;;;5012432;28;20420;-76
2022/05/13 05:20:52;;;;;;;14.57;7.17;;;12.00;97.30;;;;;;5012289;28;20631;-76
2022/05/13 05:23:24;;;;;;;12.93;6.70;;;12.10;97.30;;;;;;5013488;28;20424;-76
2022/05/13 05:25:50;;;;;;;12.03;6.67;;;12.20;97.30;;;;;;5011857;28;20881;-76
2022/05/13 05:28:16;;;;;;;8.63;6.43;;;12.30;97.30;;;;;;5012207;28;20443;-76
2022/05/13 05:30:43;;;;;;;11.70;6.30;;;12.40;97.30;;;;;;5011784;28;20174;-76
2022/05/13 05:33:09;;;;;;;7.87;5.63;;;12.50;97.30;;;;;;5011553;28;20184;-76
2022/05/13 05:35:35;;;;;;;10.50;5.90;;;12.70;97.30;;;;;;5012750;28;20432;-76
2022/05/13 05:38:01;;;;;;;11.63;6.40;;;12.80;97.30;;;;;;5011671;28;20468;-76
2022/05/13 05:40:27;;;;;;;12.77;5.67;;;13.00;97.30;;;;;;5013950;28;20421;-75
2022/05/13 05:42:53;;;;;;;13.70;5.47;;;13.10;97.30;;;;;;5011730;28;20525;-75
2022/05/13 05:45:21;;;;;;;11.07;5.53;;;13.20;97.30;;;;;;5012585;28;20197;-74
2022/05/13 05:47:47;;;;;;;10.67;4.90;;;13.30;97.30;;;;;;5011182;28;20227;-74
2022/05/13 05:50:17;;;;;;;8.70;4.87;;;13.40;97.30;;;;;;5011592;28;20451;-75
2022/05/13 05:52:43;;;;;;;12.20;4.97;;;13.50;97.30;;;;;;5013227;28;20397;-75
2022/05/13 05:58:08;;;;;;;9.37;5.17;;;13.80;97.30;;;;;;5012532;28;20220;-76
2022/05/13 06:00:37;;;;;;;8.47;5.10;;;13.90;97.30;;;;;;5011249;28;20769;-75
2022/05/13 06:03:03;;;;;;;9.83;4.10;;;14.10;97.30;;;;;;5012197;28;20500;-76
2022/05/13 06:05:29;;;;;;;12.53;4.83;;;14.20;97.30;;;;;;5012285;28;20482;-75
2022/05/13 06:07:56;;;;;;;7.70;4.77;;;14.30;97.30;;;;;;5011204;28;20432;-75
2022/05/13 06:10:22;;;;;;;10.77;4.43;;;14.40;96.30;;;;;;5012602;28;20252;-75
2022/05/13 06:12:48;;;;;;;7.73;4.33;;;14.50;96.90;;;;;;5012280;28;20416;-75
2022/05/13 06:15:14;;;;;;;9.20;4.13;;;14.60;96.60;;;;;;5012496;28;20432;-76
2022/05/13 06:17:51;;;;;;;8.37;4.47;;;14.80;96.00;;;;;;5012582;28;20181;-75
2022/05/13 06:20:20;;;;;;;11.30;4.50;;;14.90;95.10;;;;;;5012547;28;20454;-75
2022/05/13 06:22:45;;;;;;;9.00;4.20;;;15.00;95.30;;;;;;5010937;28;20460;-76
2022/05/13 06:25:13;;;;;;;8.10;4.00;;;15.10;94.80;;;;;;5010724;28;20499;-75
2022/05/13 06:27:39;;;;;;;6.53;3.80;;;15.20;95.30;;;;;;5010497;28;20239;-76
2022/05/13 06:30:07;;;;;;;7.77;4.77;;;15.20;94.70;;;;;;5010911;28;20443;-75
2022/05/13 06:32:33;;;;;;;13.37;4.70;;;15.30;93.30;;;;;;5010218;28;20424;-77
2022/05/13 06:34:59;;;;;;;9.23;4.50;;;15.40;93.90;;;;;;5010330;28;20442;-75
2022/05/13 06:37:25;;;;;;;11.50;5.30;;;15.50;93.10;;;;;;5010589;28;20953;-76
2022/05/13 06:39:50;;;;;;;11.50;5.37;;;15.50;92.80;;;;;;5010590;28;20177;-75
2022/05/13 06:42:16;;;;;;;14.13;4.27;;;15.60;92.10;;;;;;5011751;28;20177;-76
2022/05/13 06:44:42;;;;;;;8.33;4.93;;;15.70;92.90;;;;;;5011407;28;20181;-76
2022/05/13 06:47:09;;;;;;;8.17;4.57;;;15.80;93.40;;;;;;5010520;28;20806;-76
2022/05/13 06:49:35;;;;;;;8.00;4.93;;;15.90;92.60;;;;;;5010749;28;20427;-76
2022/05/13 06:52:02;;;;;;;11.30;4.20;;;16.00;92.60;;;;;;5010206;28;20417;-76
2022/05/13 06:54:28;;;;;;;7.57;4.20;;;16.20;92.10;;;;;;5010090;28;20295;-76
2022/05/13 06:56:54;;;;;;;9.07;4.73;;;16.30;92.10;;;;;;5010035;28;20456;-76
2022/05/13 06:59:21;;;;;;;11.50;5.67;;;16.40;91.90;;;;;;5010027;28;20428;-77
2022/05/13 07:01:46;;;;;;;9.27;5.17;;;16.50;91.50;;;;;;5010155;28;20424;-76
2022/05/13 07:04:12;;;;;;;7.37;4.80;;;16.70;90.20;;;;;;5010346;28;20420;-76
2022/05/13 07:06:37;;;;;;;14.97;5.73;;;16.80;90.00;;;;;;5011866;28;20293;-78
2022/05/13 07:09:03;;;;;;;10.23;5.20;;;16.80;89.80;;;;;;5010345;28;20196;-77
2022/05/13 07:11:28;;;;;;;7.70;4.90;;;16.90;90.60;;;;;;5010584;28;20323;-77
2022/05/13 07:13:54;;;;;;;10.57;5.33;;;17.00;90.00;;;;;;5010099;28;20177;-75
2022/05/13 07:16:20;;;;;;;10.60;4.67;;;17.10;89.90;;;;;;5011083;28;20566;-77
2022/05/13 07:18:47;;;;;;;8.97;4.93;;;17.30;88.30;;;;;;5011396;28;20235;-78
2022/05/13 07:21:13;;;;;;;6.20;4.57;;;17.50;88.40;;;;;;5011537;28;20173;-76
2022/05/13 07:23:38;;;;;;;7.70;5.00;;;17.60;87.90;;;;;;5010255;28;20431;-78
2022/05/13 07:26:05;;;;;;;8.53;4.50;;;17.70;87.70;;;;;;5009781;28;20506;-78
2022/05/13 07:28:30;;;;;;;10.83;4.27;;;17.80;87.30;;;;;;5009973;28;20184;-78
2022/05/13 07:30:56;;;;;;;10.13;4.80;;;17.80;87.80;;;;;;5009566;28;20844;-78
2022/05/13 07:33:23;;;;;;;8.93;4.90;;;17.80;87.30;;;;;;5010038;28;20185;-78
2022/05/13 07:35:49;;;;;;;14.03;5.77;;;17.90;86.90;;;;;;5009920;28;20201;-79
2022/05/13 07:38:15;;;;;;;11.00;4.80;;;18.00;86.60;;;;;;5008948;28;20511;-80
2022/05/13 07:43:25;;;;;;;9.80;4.40;;;18.20;86.10;;;;;;5011667;28;20176;-79
2022/05/13 07:45:50;;;;;;;7.17;4.13;;;18.30;85.60;;;;;;5009304;28;20475;-78
2022/05/13 07:48:16;;;;;;;6.77;4.37;;;18.40;85.10;;;;;;5009606;28;20181;-77
2022/05/13 07:50:42;;;;;;;11.40;3.67;;;18.50;84.00;;;;;;5010243;28;20216;-78
2022/05/13 07:53:08;;;;;;;11.03;4.40;;;18.60;83.40;;;;;;5009695;28;20173;-79
2022/05/13 07:55:33;;;;;;;8.60;4.07;;;18.70;83.20;;;;;;5010540;28;20315;-78
2022/05/13 07:57:59;;;;;;;6.20;4.00;;;18.80;83.80;;;;;;5013349;28;20802;-79
2022/05/13 08:00:26;;;;;;;9.70;4.20;;;18.90;82.20;;;;;;5012356;28;20177;-78
2022/05/13 08:03:13;;;;;;;12.00;4.00;;;19.00;82.30;;;;;;5010024;28;20177;-78
2022/05/13 08:05:43;;;;;;;6.20;3.23;;;19.00;81.60;;;;;;5009080;28;20463;-79
2022/05/13 08:08:20;;;;;;;8.67;3.40;;;19.10;80.80;;;;;;5010867;28;20907;-79
2022/05/13 08:10:49;;;;;;;7.33;3.60;;;19.10;80.10;;;;;;5010222;28;20439;-78
2022/05/13 08:13:15;;;;;;;7.87;3.50;;;19.10;80.50;;;;;;5011097;28;20412;-79
2022/05/13 08:15:41;;;;;;;8.70;3.57;;;19.10;80.80;;;;;;5009714;28;20440;-80
2022/05/13 08:18:08;;;;;;;6.27;2.90;;;19.10;81.50;;;;;;5010354;28;20180;-79
2022/05/13 08:20:34;;;;;;;6.83;3.57;;;19.10;81.10;;;;;;5009461;28;20958;-80
2022/05/13 08:22:59;;;;;;;7.13;3.13;;;19.10;81.30;;;;;;5011261;28;20423;-80
2022/05/13 08:25:26;;;;;;;7.57;3.40;;;19.20;81.60;;;;;;5010684;28;20651;-79
2022/05/13 08:27:51;;;;;;;5.40;3.10;;;19.20;80.70;;;;;;5012907;28;20409;-82
2022/05/13 08:30:18;;;;;;;12.07;3.30;;;19.20;80.70;;;;;;5011673;28;20957;-79
2022/05/13 08:32:43;;;;;;;7.67;4.07;;;19.20;80.80;;;;;;5009552;28;20678;-78
2022/05/13 08:35:10;;;;;;;6.33;3.87;;;19.30;81.20;;;;;;5010521;28;20435;-78
2022/05/13 08:37:44;;;;;;;13.67;3.67;;;19.40;80.60;;;;;;5011109;28;20185;-79
2022/05/13 08:40:45;;;;;;;10.03;3.20;;;19.40;80.90;;;;;;5012718;28;20775;-78
2022/05/13 08:43:15;;;;;;;23.30;3.90;;;19.50;81.10;;;;;;5027725;28;20519;-80
2022/05/13 08:45:56;;;;;;;10.87;2.87;;;19.60;80.90;;;;;;5010650;28;20468;-79
2022/05/13 08:48:38;;;;;;;8.83;3.93;;;19.70;81.10;;;;;;5010261;28;20412;-78
2022/05/13 08:51:18;;;;;;;8.63;3.97;;;19.80;80.90;;;;;;5016055;28;21091;-80
2022/05/13 08:53:58;;;;;;;5.80;3.60;;;19.70;81.10;;;;;;5017036;28;20430;-80
2022/05/13 08:56:29;;;;;;;7.83;3.57;;;19.70;81.20;;;;;;5015447;28;20509;-80
2022/05/13 08:59:02;;;;;;;20.63;3.80;;;19.60;81.20;;;;;;5018109;28;20412;-80
2022/05/13 09:01:35;;;;;;;12.33;3.80;;;19.50;81.90;;;;;;5018797;28;20467;-81
2022/05/13 09:04:09;;;;;;;5.83;3.40;;;19.40;81.00;;;;;;5020014;28;20408;-80
2022/05/13 09:06:47;;;;;;;8.80;3.27;;;19.40;80.30;;;;;;5020174;28;20467;-80
2022/05/13 09:09:13;;;;;;;8.03;4.10;;;19.40;81.40;;;;;;5016156;28;20416;-80
2022/05/13 09:12:12;;;;;;;5.63;3.40;;;19.40;81.50;;;;;;5014964;28;20763;-79
2022/05/13 09:14:59;;;;;;;14.50;5.00;;;19.40;80.90;;;;;;5014105;28;20181;-78
2022/05/13 09:17:45;;;;;;;7.30;3.40;;;19.30;80.70;;;;;;5031758;28;20454;-81
2022/05/13 09:20:12;;;;;;;10.77;3.23;;;19.20;80.40;;;;;;5014978;28;20943;-79
2022/05/13 09:22:45;;;;;;;8.33;3.20;;;19.40;80.50;;;;;;5018816;28;20412;-81
2022/05/13 09:25:26;;;;;;;9.13;3.10;;;19.50;79.40;;;;;;5016876;28;20788;-78
2022/05/13 09:28:01;;;;;;;6.17;3.13;;;19.50;79.50;;;;;;5016992;28;20451;-81
2022/05/13 09:30:41;;;;;;;8.03;3.73;;;19.50;79.70;;;;;;5015521;28;20423;-80
2022/05/13 09:33:31;;;;;;;7.00;2.93;;;19.60;80.30;;;;;;5020584;28;20423;-79
2022/05/13 09:35:59;;;;;;;11.10;3.33;;;19.50;81.60;;;;;;5015405;28;20436;-81
2022/05/13 09:38:29;;;;;;;11.73;3.33;;;19.50;80.20;;;;;;5020057;28;20428;-81
2022/05/13 09:40:59;;;;;;;6.33;3.13;;;19.40;80.30;;;;;;5015413;28;21069;-80
2022/05/13 09:43:36;;;;;;;10.87;3.93;;;19.30;80.30;;;;;;5018105;28;20412;-78
2022/05/13 09:46:35;;;;;;;10.37;3.60;;;19.10;80.00;;;;;;5013830;28;20471;-79
2022/05/13 09:49:06;;;;;;;7.37;3.40;;;19.10;80.30;;;;;;5007996;28;20412;-76
2022/05/13 09:51:36;;;;;;;5.60;3.20;;;19.20;79.90;;;;;;5012064;28;20439;-77
2022/05/13 09:54:07;;;;;;;7.57;3.87;;;19.30;80.00;;;;;;5013381;28;20470;-81
2022/05/13 09:56:36;;;;;;;6.23;3.13;;;19.50;79.40;;;;;;5013162;28;20435;-81
2022/05/13 09:59:07;;;;;;;8.50;3.50;;;19.50;79.70;;;;;;5013948;28;20412;-80
2022/05/13 10:01:32;;;;;;;6.07;3.40;;;19.50;79.60;;;;;;5013117;28;20424;-80
2022/05/13 10:04:09;;;;;;;15.70;3.50;;;19.50;80.30;;;;;;5012226;28;20423;-77
2022/05/13 10:06:35;;;;;;;8.90;3.00;;;19.30;80.20;;;;;;5011931;28;20231;-78
2022/05/13 10:14:44;;;;;;;6.40;3.43;;;19.80;78.80;;;;;;5014057;28;20458;-77
2022/05/13 10:17:23;;;;;;;3.33;2.80;;;19.90;77.80;;;;;;5014503;28;20455;-83
2022/05/13 10:20:03;;;;;;;16.60;2.97;;;19.80;77.50;;;;;;5011930;28;20428;-78
2022/05/13 10:22:40;;;;;;;5.73;2.70;;;19.80;77.50;;;;;;5012489;28;20416;-77
2022/05/13 10:25:11;;;;;;;12.10;2.80;;;19.80;77.40;;;;;;5011713;28;20981;-82
2022/05/13 10:27:54;;;;;;;3.73;2.60;;;19.80;77.60;;;;;;5011811;28;20417;-77
2022/05/13 10:30:48;;;;;;;9.80;2.63;;;19.90;77.80;;;;;;5012091;28;20412;-78
2022/05/13 10:33:49;;;;;;;7.57;3.17;;;20.00;78.10;;;;;;4999627;28;20539;-76
2022/05/13 10:36:20;;;;;;;7.70;2.83;;;20.00;76.80;;;;;;5010821;28;20462;-76
2022/05/13 10:39:10;;;;;;;7.80;3.03;;;19.90;77.50;;;;;;5011060;28;20860;-75
2022/05/13 10:41:56;;;;;;;6.93;2.77;;;19.90;77.00;;;;;;5011485;28;20431;-78
2022/05/13 10:44:48;;;;;;;3.10;2.20;;;19.80;76.50;;;;;;5010712;28;20428;-77
2022/05/13 10:47:17;;;;;;;6.67;2.90;;;19.90;76.60;;;;;;5011254;28;20523;-78
2022/05/13 10:49:44;;;;;;;6.60;2.87;;;19.90;76.60;;;;;;5011333;28;20936;-77
2022/05/13 10:52:31;;;;;;;5.03;2.27;;;20.00;76.60;;;;;;5010317;28;20799;-76
2022/05/13 10:54:59;;;;;;;6.17;2.80;;;20.10;77.20;;;;;;5010520;28;20479;-77
2022/05/13 10:57:37;;;;;;;5.47;2.40;;;20.20;75.50;;;;;;5011001;28;20419;-77
2022/05/13 11:00:20;;;;;;;9.73;2.70;;;20.40;75.60;;;;;;5011057;28;20840;-80
2022/05/13 11:02:57;;;;;;;5.40;2.90;;;20.50;74.20;;;;;;5011293;28;20703;-76
2022/05/13 11:05:32;;;;;;;4.80;2.30;;;20.30;74.40;;;;;;5010783;28;20495;-79
2022/05/13 11:08:40;;;;;;;9.60;2.77;;;20.10;74.60;;;;;;5010217;28;20525;-77
2022/05/13 11:11:39;;;;;;;7.77;2.30;;;20.20;75.90;;;;;;5011926;28;20411;-78
2022/05/13 11:14:45;;;;;;;4.63;2.20;;;20.50;76.30;;;;;;5011635;28;20400;-78
2022/05/13 11:17:16;;;;;;;4.23;2.50;;;20.80;75.30;;;;;;4951588;29;21000;-78
2022/05/13 11:19:53;;;;;;;7.70;2.80;;;20.80;76.10;;;;;;4997795;28;20467;-78
2022/05/13 11:22:49;;;;;;;6.47;2.80;;;20.80;76.20;;;;;;5012364;28;20933;-78
2022/05/13 11:26:05;;;;;;;7.20;2.47;;;20.70;75.70;;;;;;5010995;28;20591;-78
2022/05/13 11:28:46;;;;;;;4.63;2.40;;;20.60;76.20;;;;;;4931431;29;20456;-78
2022/05/13 11:31:33;;;;;;;8.70;2.70;;;20.40;75.60;;;;;;5010150;28;20522;-79
2022/05/13 11:34:20;;;;;;;6.27;2.57;;;20.30;75.90;;;;;;5011898;28;20508;-78
2022/05/13 11:37:02;;;;;;;8.77;2.80;;;20.20;75.50;;;;;;5011916;28;20439;-80
2022/05/13 11:39:53;;;;;;;9.30;3.20;;;20.20;76.00;;;;;;5010997;28;20420;-79
2022/05/13 11:42:24;;;;;;;4.90;2.87;;;20.20;76.20;;;;;;5011752;28;20423;-81
2022/05/13 11:45:15;;;;;;;10.50;2.70;;;20.20;76.90;;;;;;5011631;28;20425;-84
2022/05/13 11:47:59;;;;;;;9.97;3.20;;;20.30;75.80;;;;;;5030305;28;20426;-84
2022/05/13 11:50:27;;;;;;;5.63;2.93;;;20.40;76.60;;;;;;5014759;28;20440;-84
2022/05/13 11:52:54;;;;;;;9.53;3.30;;;20.30;76.50;;;;;;5013715;28;20981;-83
2022/05/13 11:55:42;;;;;;;8.80;3.13;;;20.10;76.60;;;;;;5014408;28;20483;-83
2022/05/13 11:58:09;;;;;;;6.00;3.07;;;20.20;77.40;;;;;;5014056;28;20435;-84
2022/05/13 12:00:40;;;;;;;6.20;2.33;;;20.40;77.00;;;;;;5013813;28;20952;-84
2022/05/13 12:03:08;;;;;;;8.27;2.80;;;20.60;76.30;;;;;;5013250;28;20431;-86
2022/05/13 12:05:40;;;;;;;8.97;2.30;;;20.80;74.40;;;;;;5012048;28;21006;-84
2022/05/13 12:08:18;;;;;;;6.03;2.60;;;20.90;73.30;;;;;;5012775;28;20426;-87
2022/05/13 12:11:03;;;;;;;5.30;2.50;;;20.90;72.90;;;;;;5012945;28;20443;-81
2022/05/13 12:13:57;;;;;;;5.50;2.50;;;21.10;72.60;;;;;;5013996;28;20427;-83
2022/05/13 12:16:39;;;;;;;7.10;2.77;;;21.20;70.50;;;;;;5028457;28;21095;-83
2022/05/13 12:19:45;;;;;;;4.00;2.80;;;21.20;69.50;;;;;;5013543;28;20933;-87
2022/05/13 12:22:29;;;;;;;8.77;2.40;;;21.50;69.60;;;;;;5011470;28;20427;-83
2022/05/13 12:25:03;;;;;;;4.60;2.70;;;21.60;69.10;;;;;;5012326;28;20472;-84
2022/05/13 12:27:42;;;;;;;4.77;2.40;;;21.60;68.30;;;;;;5012864;28;20432;-83
2022/05/13 12:30:29;;;;;;;6.53;2.90;;;21.60;69.30;;;;;;5012984;28;20482;-84
2022/05/13 12:32:55;;;;;;;6.63;2.57;;;21.70;69.10;;;;;;5013104;28;20797;-83
2022/05/13 12:38:17;;;;;;;12.20;2.60;;;21.30;68.50;;;;;;5014093;28;20419;-83
2022/05/13 12:41:16;;;;;;;7.87;3.13;;;21.20;69.90;;;;;;5013604;28;20774;-83
2022/05/13 12:43:53;;;;;;;7.60;2.10;;;21.30;70.70;;;;;;5012581;28;20180;-80
2022/05/13 12:46:39;;;;;;;5.73;2.87;;;21.30;68.90;;;;;;5014228;28;20478;-84
2022/05/13 12:49:11;;;;;;;7.33;2.57;;;21.00;70.00;;;;;;5014789;28;20415;-81
2022/05/13 12:52:12;;;;;;;8.63;2.43;;;20.70;70.50;;;;;;5013875;28;20476;-81
2022/05/13 12:54:44;;;;;;;7.07;2.60;;;20.70;70.90;;;;;;5010338;28;20558;-80
2022/05/13 12:57:13;;;;;;;9.43;2.27;;;20.90;70.80;;;;;;5011228;28;20870;-81
2022/05/13 12:59:41;;;;;;;7.40;2.80;;;21.00;70.00;;;;;;5013088;28;20427;-82
2022/05/13 13:02:08;;;;;;;4.57;2.13;;;20.90;70.20;;;;;;5012277;28;20739;-80
2022/05/13 13:04:40;;;;;;;7.03;2.90;;;20.80;70.50;;;;;;5011768;28;20436;-80
2022/05/13 13:07:09;;;;;;;8.07;2.40;;;20.70;71.30;;;;;;5010697;28;20460;-80
2022/05/13 13:09:41;;;;;;;3.10;2.40;;;20.50;70.80;;;;;;5010324;28;20452;-79
2022/05/13 13:12:30;;;;;;;2.70;2.10;;;20.20;71.60;;;;;;5012549;28;20412;-80
2022/05/13 13:15:25;;;;;;;6.10;2.13;;;20.10;71.80;;;;;;5011085;28;20463;-79
2022/05/13 13:17:57;;;;;;;5.30;2.10;;;20.20;71.70;;;;;;5012095;28;20404;-80
2022/05/13 13:20:25;;;;;;;4.30;2.10;;;20.20;71.20;;;;;;5009893;28;20926;-79
2022/05/13 13:23:00;;;;;;;8.67;2.60;;;20.10;70.20;;;;;;5009930;28;20500;-80
2022/05/13 13:25:31;;;;;;;11.83;2.70;;;20.00;70.40;;;;;;5010712;28;20510;-80
2022/05/13 13:27:59;;;;;;;9.97;2.40;;;20.00;71.30;;;;;;5010722;28;20401;-80
2022/05/13 13:30:26;;;;;;;4.10;2.17;;;19.90;71.30;;;;;;5010408;28;20409;-82
2022/05/13 13:32:53;;;;;;;6.47;2.40;;;19.90;71.70;;;;;;5012681;28;20412;-81